Time;durP1;ratioP1;P1;durP2;ratioP2;P2;SDS_P1;SDS_P2;PMS_P1;PMS_P2;Temp;Humidity;BMP_temperature;BMP_pressure;BME280_temperature;BME280_humidity;BME280_pressure;Samples;Min_cycle;Max_cycle;Signal;HPM_P1;HPM_P2
2023/09/24 00:02:40;;;;;;;6.22;4.07;;;15.40;96.50;;;;;;6242428;23;20039;-73
2023/09/24 00:05:26;;;;;;;5.60;3.70;;;15.40;96.60;;;;;;6241114;23;20020;-73
2023/09/24 00:08:12;;;;;;;4.32;2.83;;;15.40;96.70;;;;;;6241782;23;20008;-73
2023/09/24 00:10:58;;;;;;;4.72;3.47;;;15.30;96.70;;;;;;6242083;22;20008;-73
2023/09/24 00:13:44;;;;;;;5.80;3.88;;;15.30;96.80;;;;;;6240674;23;20016;-73
2023/09/24 00:16:31;;;;;;;6.13;3.53;;;15.30;96.90;;;;;;6241210;23;20009;-73
2023/09/24 00:19:17;;;;;;;5.53;3.72;;;15.30;96.80;;;;;;6242108;23;20004;-73
2023/09/24 00:22:04;;;;;;;4.75;3.35;;;15.30;96.90;;;;;;6239333;23;20027;-73
2023/09/24 00:24:50;;;;;;;3.78;2.88;;;15.30;96.90;;;;;;6240445;23;20060;-72
2023/09/24 00:27:36;;;;;;;5.68;3.78;;;15.30;97.00;;;;;;6241154;23;20087;-72
2023/09/24 00:30:22;;;;;;;4.80;3.30;;;15.30;97.00;;;;;;6241364;23;20022;-73
2023/09/24 00:33:09;;;;;;;6.85;3.03;;;15.20;97.00;;;;;;6239832;23;20004;-73
2023/09/24 00:35:59;;;;;;;9.48;3.75;;;15.20;97.00;;;;;;6240381;23;20012;-74
2023/09/24 00:38:45;;;;;;;7.13;3.90;;;15.20;97.00;;;;;;6239341;23;20346;-73
2023/09/24 00:41:31;;;;;;;4.45;3.08;;;15.20;97.00;;;;;;6239364;23;20086;-72
2023/09/24 00:44:17;;;;;;;4.72;2.75;;;15.20;97.00;;;;;;6241227;23;20051;-73
2023/09/24 00:47:03;;;;;;;4.90;2.90;;;15.10;97.10;;;;;;6239401;23;20018;-72
2023/09/24 00:49:50;;;;;;;5.13;3.38;;;15.10;97.20;;;;;;6240903;23;20016;-72
2023/09/24 00:52:38;;;;;;;4.97;3.30;;;15.10;97.20;;;;;;6239870;23;20085;-74
2023/09/24 00:55:26;;;;;;;5.68;3.20;;;15.10;97.20;;;;;;6241742;22;20031;-75
2023/09/24 00:58:12;;;;;;;4.95;3.00;;;15.10;97.20;;;;;;6242612;23;20044;-73
2023/09/24 01:00:57;;;;;;;6.47;3.00;;;15.10;97.30;;;;;;6240186;23;20036;-74
2023/09/24 01:03:46;;;;;;;3.92;3.00;;;15.10;97.40;;;;;;6241181;22;20040;-73
2023/09/24 01:06:33;;;;;;;5.68;3.38;;;15.00;97.30;;;;;;6240598;23;20465;-72
2023/09/24 01:09:19;;;;;;;4.68;3.05;;;15.10;97.40;;;;;;6240551;23;20455;-71
2023/09/24 01:12:05;;;;;;;4.68;3.72;;;15.00;97.40;;;;;;6240406;23;20345;-72
2023/09/24 01:14:53;;;;;;;4.90;3.40;;;15.00;97.40;;;;;;6241739;23;20036;-72
2023/09/24 01:17:39;;;;;;;4.35;2.75;;;15.00;97.50;;;;;;6217665;23;20008;-73
2023/09/24 01:20:27;;;;;;;6.45;4.22;;;15.00;97.50;;;;;;6239347;23;20012;-73
2023/09/24 01:23:14;;;;;;;6.18;3.65;;;15.00;97.50;;;;;;6216637;23;20009;-72
2023/09/24 01:26:00;;;;;;;5.88;3.05;;;15.00;97.60;;;;;;6220187;23;20016;-73
2023/09/24 01:28:47;;;;;;;4.75;3.08;;;15.00;97.60;;;;;;6238791;23;20015;-74
2023/09/24 01:31:33;;;;;;;5.75;3.83;;;15.00;97.60;;;;;;6240718;23;20043;-73
2023/09/24 01:34:19;;;;;;;5.13;3.10;;;15.00;97.60;;;;;;6241497;23;20119;-73
2023/09/24 01:37:08;;;;;;;5.07;3.03;;;14.90;97.70;;;;;;6238965;23;20013;-74
2023/09/24 01:39:55;;;;;;;5.07;3.33;;;14.90;97.80;;;;;;6216599;23;20087;-73
2023/09/24 01:42:41;;;;;;;4.15;2.67;;;14.90;97.80;;;;;;6240337;23;20095;-74
2023/09/24 01:45:30;;;;;;;4.45;3.05;;;14.90;97.90;;;;;;6239165;23;20019;-74
2023/09/24 01:48:17;;;;;;;5.78;3.30;;;14.90;98.00;;;;;;6238912;23;20070;-74
2023/09/24 01:51:12;;;;;;;5.30;3.65;;;14.90;98.00;;;;;;6240583;23;20012;-72
2023/09/24 01:53:59;;;;;;;4.97;3.20;;;14.90;98.10;;;;;;6240393;23;20012;-71
2023/09/24 01:56:45;;;;;;;5.97;3.80;;;14.80;98.10;;;;;;6241693;22;20008;-71
2023/09/24 01:59:31;;;;;;;3.40;2.78;;;14.80;98.20;;;;;;6242637;23;20489;-71
2023/09/24 02:02:17;;;;;;;4.72;3.13;;;14.90;98.30;;;;;;6218107;23;20012;-72
2023/09/24 02:05:06;;;;;;;4.45;3.00;;;14.80;98.30;;;;;;6242953;22;20020;-72
2023/09/24 02:07:52;;;;;;;3.15;2.60;;;14.90;98.40;;;;;;6241770;23;20271;-71
2023/09/24 02:10:40;;;;;;;3.97;2.63;;;14.90;98.40;;;;;;6242688;22;20012;-72
2023/09/24 02:13:27;;;;;;;5.68;3.58;;;14.90;98.60;;;;;;6240714;23;20448;-71
2023/09/24 02:16:13;;;;;;;5.18;3.53;;;14.90;98.40;;;;;;6240787;23;20472;-71
2023/09/24 02:19:00;;;;;;;7.25;3.67;;;14.90;98.40;;;;;;6242569;23;20488;-72
2023/09/24 02:21:46;;;;;;;4.90;3.42;;;14.80;98.50;;;;;;6218710;23;20015;-72
2023/09/24 02:24:32;;;;;;;6.88;3.60;;;14.90;98.50;;;;;;6242216;23;20024;-72
2023/09/24 02:27:18;;;;;;;5.47;3.35;;;14.80;98.60;;;;;;6240420;23;20015;-71
2023/09/24 02:30:05;;;;;;;5.53;2.67;;;14.80;98.60;;;;;;6241713;22;20038;-73
2023/09/24 02:32:51;;;;;;;4.75;3.58;;;14.80;98.70;;;;;;6241043;23;20001;-71
2023/09/24 02:35:37;;;;;;;5.40;3.10;;;14.80;98.70;;;;;;6239837;23;20016;-72
2023/09/24 02:38:24;;;;;;;5.07;3.20;;;14.80;98.80;;;;;;6243215;23;20012;-72
2023/09/24 02:41:11;;;;;;;4.38;2.90;;;14.70;98.80;;;;;;6218791;23;20019;-73
2023/09/24 02:43:57;;;;;;;4.85;2.95;;;14.80;98.80;;;;;;6240451;23;20012;-74
2023/09/24 02:46:44;;;;;;;5.40;3.58;;;14.70;98.80;;;;;;6242661;23;20043;-73
2023/09/24 02:49:29;;;;;;;5.18;3.30;;;14.70;98.80;;;;;;6242201;23;20441;-72
2023/09/24 02:52:15;;;;;;;5.00;2.90;;;14.70;98.90;;;;;;6242452;23;20331;-72
2023/09/24 02:55:04;;;;;;;5.05;3.55;;;14.70;99.00;;;;;;6240377;22;20012;-73
2023/09/24 02:57:53;;;;;;;4.28;2.88;;;14.70;99.00;;;;;;6240104;23;20004;-72
2023/09/24 03:00:41;;;;;;;5.40;3.83;;;14.70;99.10;;;;;;6219307;23;20528;-73
2023/09/24 03:03:28;;;;;;;3.75;2.95;;;14.70;99.30;;;;;;6240426;23;20004;-73
2023/09/24 03:06:15;;;;;;;5.43;3.42;;;14.70;99.30;;;;;;6240541;23;20107;-72
2023/09/24 03:09:01;;;;;;;5.43;3.10;;;14.70;99.30;;;;;;6241166;23;20088;-72
2023/09/24 03:11:47;;;;;;;4.88;3.40;;;14.70;99.40;;;;;;6239904;23;20039;-72
2023/09/24 03:14:33;;;;;;;4.82;2.90;;;14.80;99.40;;;;;;6241438;23;20012;-71
2023/09/24 03:17:19;;;;;;;5.15;3.10;;;14.80;99.40;;;;;;6243141;22;20008;-73
2023/09/24 03:20:14;;;;;;;5.30;3.60;;;14.90;99.50;;;;;;6242263;23;20433;-72
2023/09/24 03:23:08;;;;;;;5.07;2.95;;;14.90;99.50;;;;;;6240169;23;20009;-72
2023/09/24 03:25:54;;;;;;;5.70;2.83;;;14.90;99.50;;;;;;6240058;23;20016;-72
2023/09/24 03:28:41;;;;;;;6.90;3.10;;;14.90;99.50;;;;;;6239726;23;20449;-73
2023/09/24 03:31:27;;;;;;;4.25;2.80;;;15.00;99.50;;;;;;6241161;23;20039;-73
2023/09/24 03:34:13;;;;;;;5.03;2.80;;;15.10;99.50;;;;;;6241370;23;20095;-72
2023/09/24 03:36:59;;;;;;;4.90;2.80;;;15.10;99.50;;;;;;6239968;23;20103;-72
2023/09/24 03:39:45;;;;;;;5.07;2.97;;;15.20;99.60;;;;;;6239733;23;20422;-73
2023/09/24 03:42:31;;;;;;;5.97;3.00;;;15.20;99.50;;;;;;6241668;23;20023;-72
2023/09/24 03:45:19;;;;;;;5.25;2.90;;;15.20;99.50;;;;;;6241481;23;20043;-72
2023/09/24 03:48:06;;;;;;;5.22;3.15;;;15.20;99.60;;;;;;6241231;23;20004;-61
2023/09/24 03:50:53;;;;;;;5.22;3.42;;;15.30;99.60;;;;;;6240623;23;20381;-61
2023/09/24 03:53:39;;;;;;;5.80;3.05;;;15.40;99.50;;;;;;6240326;23;20012;-61
2023/09/24 03:56:25;;;;;;;4.38;3.00;;;15.40;99.50;;;;;;6241295;22;20061;-62
2023/09/24 03:59:11;;;;;;;4.03;2.85;;;15.40;99.50;;;;;;6241588;23;20012;-61
2023/09/24 04:01:57;;;;;;;7.63;2.50;;;15.50;99.50;;;;;;6241424;22;20023;-61
2023/09/24 04:04:43;;;;;;;4.25;3.00;;;15.50;99.40;;;;;;6241643;22;20389;-61
2023/09/24 04:07:29;;;;;;;4.65;2.85;;;15.60;99.40;;;;;;6241335;23;20375;-61
2023/09/24 04:10:15;;;;;;;4.13;2.85;;;15.60;99.60;;;;;;6241067;23;20335;-62
2023/09/24 04:13:01;;;;;;;3.47;2.58;;;15.70;99.40;;;;;;6240678;23;20012;-57
2023/09/24 04:15:47;;;;;;;5.30;3.05;;;15.70;99.40;;;;;;6241597;23;20468;-63
2023/09/24 04:18:34;;;;;;;3.60;2.60;;;15.70;99.40;;;;;;6242006;23;20445;-66
2023/09/24 04:21:20;;;;;;;4.00;2.65;;;15.70;99.40;;;;;;6238666;23;20457;-68
2023/09/24 04:24:06;;;;;;;3.92;2.83;;;15.70;99.40;;;;;;6240446;22;20044;-68
2023/09/24 04:26:54;;;;;;;6.70;3.20;;;15.70;99.40;;;;;;6240275;23;20059;-72
2023/09/24 04:29:40;;;;;;;6.00;2.90;;;15.80;99.40;;;;;;6239195;23;20049;-69
2023/09/24 04:32:26;;;;;;;5.75;3.13;;;15.80;99.40;;;;;;6239332;23;20008;-71
2023/09/24 04:35:12;;;;;;;4.55;3.15;;;15.80;99.40;;;;;;6241224;23;20441;-72
2023/09/24 04:37:58;;;;;;;6.07;3.85;;;15.90;99.30;;;;;;6240906;23;20446;-71
2023/09/24 04:40:44;;;;;;;5.63;3.70;;;15.90;99.30;;;;;;6241599;22;20004;-72
2023/09/24 04:43:30;;;;;;;6.57;3.80;;;15.90;99.30;;;;;;6242078;22;20035;-72
2023/09/24 04:46:16;;;;;;;7.70;4.32;;;15.90;99.30;;;;;;6240865;23;20025;-72
2023/09/24 04:49:05;;;;;;;6.57;4.60;;;15.90;99.30;;;;;;6241627;23;20341;-71
2023/09/24 04:51:50;;;;;;;6.25;5.03;;;15.90;99.30;;;;;;6239298;23;20066;-72
2023/09/24 04:54:36;;;;;;;7.07;5.28;;;15.90;99.40;;;;;;6241581;22;20341;-73
2023/09/24 04:57:22;;;;;;;6.35;5.32;;;15.90;99.40;;;;;;6240084;23;20012;-73
2023/09/24 05:00:10;;;;;;;8.00;5.57;;;15.90;99.40;;;;;;6239950;23;20019;-73
2023/09/24 05:02:56;;;;;;;7.38;5.05;;;15.90;99.50;;;;;;6241895;23;20008;-72
2023/09/24 05:05:43;;;;;;;10.02;5.88;;;15.90;99.50;;;;;;6239006;23;20492;-72
2023/09/24 05:08:29;;;;;;;8.95;5.60;;;15.80;99.50;;;;;;6239809;23;20087;-72
2023/09/24 05:11:15;;;;;;;7.90;5.75;;;15.80;99.60;;;;;;6241025;23;20012;-73
2023/09/24 05:14:01;;;;;;;7.20;5.60;;;15.70;99.70;;;;;;6241674;23;20016;-72
2023/09/24 05:16:50;;;;;;;9.20;5.65;;;15.70;99.70;;;;;;6241954;23;20008;-71
2023/09/24 05:19:36;;;;;;;8.68;5.90;;;15.70;99.80;;;;;;6239940;23;20008;-72
2023/09/24 05:22:23;;;;;;;6.85;4.70;;;15.70;99.90;;;;;;6239735;23;20062;-72
2023/09/24 05:25:09;;;;;;;15.57;5.95;;;15.70;99.90;;;;;;6239091;23;20023;-73
2023/09/24 05:27:55;;;;;;;8.18;6.43;;;15.70;99.90;;;;;;6243093;22;20008;-73
2023/09/24 05:30:41;;;;;;;14.00;7.88;;;15.70;99.90;;;;;;6241476;23;20008;-68
2023/09/24 05:33:27;;;;;;;7.78;5.40;;;15.60;99.90;;;;;;6242408;22;20004;-68
2023/09/24 05:36:13;;;;;;;8.75;6.55;;;15.60;99.90;;;;;;6242751;22;20078;-68
2023/09/24 05:38:59;;;;;;;9.18;7.03;;;15.60;99.90;;;;;;6242885;22;20012;-68
2023/09/24 05:41:45;;;;;;;8.50;6.78;;;15.70;99.90;;;;;;6240309;23;20016;-68
2023/09/24 05:44:32;;;;;;;9.07;7.03;;;15.70;99.90;;;;;;6241233;23;20062;-68
2023/09/24 05:47:19;;;;;;;10.55;7.68;;;15.60;99.90;;;;;;6241352;23;20538;-69
2023/09/24 05:50:05;;;;;;;9.05;6.95;;;15.70;99.90;;;;;;6241594;23;20016;-68
2023/09/24 05:52:52;;;;;;;9.57;6.93;;;15.70;99.90;;;;;;6241977;23;20637;-68
2023/09/24 05:55:38;;;;;;;8.90;5.88;;;15.70;99.90;;;;;;6240164;22;20064;-68
2023/09/24 05:58:24;;;;;;;9.02;6.70;;;15.60;99.90;;;;;;6240740;23;20023;-69
2023/09/24 06:01:17;;;;;;;6.78;5.35;;;15.60;99.90;;;;;;6241108;23;20015;-69
2023/09/24 06:04:03;;;;;;;7.70;5.85;;;15.50;99.90;;;;;;6240733;22;20008;-68
2023/09/24 06:06:49;;;;;;;7.35;5.20;;;15.50;99.90;;;;;;6242993;23;20012;-68
2023/09/24 06:09:35;;;;;;;10.00;6.43;;;15.60;99.90;;;;;;6242064;23;20012;-67
2023/09/24 06:12:22;;;;;;;7.82;5.95;;;15.60;99.90;;;;;;6240788;23;20008;-67
2023/09/24 06:15:10;;;;;;;7.10;5.90;;;15.60;99.90;;;;;;6240285;23;20004;-69
2023/09/24 06:17:56;;;;;;;6.70;5.63;;;15.70;99.90;;;;;;6241890;23;20016;-67
2023/09/24 06:20:45;;;;;;;8.35;5.90;;;15.70;99.90;;;;;;6240340;23;20035;-67
2023/09/24 06:23:31;;;;;;;7.25;5.90;;;15.70;99.90;;;;;;6240953;23;20433;-68
2023/09/24 06:26:19;;;;;;;7.82;5.25;;;15.70;99.90;;;;;;6241075;23;20020;-69
2023/09/24 06:29:05;;;;;;;6.70;5.05;;;15.80;99.90;;;;;;6240896;23;20009;-66
2023/09/24 06:31:52;;;;;;;6.70;5.25;;;15.80;99.90;;;;;;6242593;22;20012;-67
2023/09/24 06:34:38;;;;;;;8.10;5.53;;;15.90;99.90;;;;;;6241118;23;20008;-68
2023/09/24 06:37:25;;;;;;;8.77;4.85;;;15.80;99.90;;;;;;6239231;23;20016;-69
2023/09/24 06:40:11;;;;;;;5.50;3.97;;;15.90;99.90;;;;;;6241777;23;20083;-67
2023/09/24 06:42:57;;;;;;;5.72;4.00;;;16.00;99.90;;;;;;6242389;22;20023;-68
2023/09/24 06:45:43;;;;;;;7.10;4.00;;;16.00;99.90;;;;;;6239971;23;20027;-67
2023/09/24 06:48:29;;;;;;;7.95;4.43;;;16.10;99.90;;;;;;6240541;23;20083;-66
2023/09/24 06:51:15;;;;;;;5.88;3.47;;;16.10;99.90;;;;;;6219606;23;20012;-67
2023/09/24 06:54:01;;;;;;;4.63;3.58;;;16.20;99.90;;;;;;6242020;22;20008;-65
2023/09/24 06:56:46;;;;;;;6.15;3.63;;;16.20;99.90;;;;;;6229795;22;20085;-67
2023/09/24 06:59:32;;;;;;;8.80;3.58;;;16.20;99.90;;;;;;6242508;23;20099;-64
2023/09/24 07:02:18;;;;;;;6.07;4.30;;;16.20;99.90;;;;;;6242759;22;20004;-65
2023/09/24 07:05:05;;;;;;;5.10;3.63;;;16.20;99.90;;;;;;6242773;23;20030;-65
2023/09/24 07:07:51;;;;;;;5.97;3.38;;;16.40;99.90;;;;;;6241382;23;20334;-68
2023/09/24 07:10:37;;;;;;;5.60;3.42;;;16.40;99.90;;;;;;6239888;23;20087;-68
2023/09/24 07:13:23;;;;;;;6.35;3.58;;;16.50;99.90;;;;;;6243402;22;20060;-61
2023/09/24 07:16:10;;;;;;;9.32;4.20;;;16.60;99.90;;;;;;6243025;23;20030;-64
2023/09/24 07:18:57;;;;;;;6.50;4.30;;;16.70;99.80;;;;;;6240257;23;20114;-72
2023/09/24 07:21:43;;;;;;;6.50;4.13;;;16.70;99.70;;;;;;6240870;23;20077;-69
2023/09/24 07:24:28;;;;;;;8.15;4.68;;;16.80;99.70;;;;;;6242961;22;20008;-69
2023/09/24 07:27:14;;;;;;;6.50;4.80;;;16.80;99.50;;;;;;6220178;23;20004;-67
2023/09/24 07:30:00;;;;;;;9.18;4.85;;;16.90;99.50;;;;;;6219247;23;20008;-70
2023/09/24 07:32:48;;;;;;;6.95;4.75;;;17.00;99.60;;;;;;6241351;23;20004;-69
2023/09/24 07:35:34;;;;;;;7.57;5.50;;;17.00;99.30;;;;;;6239810;23;20074;-72
2023/09/24 07:38:20;;;;;;;8.27;4.93;;;17.00;99.30;;;;;;6240517;23;20362;-72
2023/09/24 07:41:10;;;;;;;5.35;4.60;;;17.10;99.30;;;;;;6242545;22;20033;-67
2023/09/24 07:43:56;;;;;;;5.93;4.22;;;17.10;99.30;;;;;;6241334;23;20008;-71
2023/09/24 07:46:42;;;;;;;5.85;4.72;;;17.20;99.20;;;;;;6242512;23;20409;-73
2023/09/24 07:49:28;;;;;;;8.45;5.53;;;17.20;99.10;;;;;;6242392;22;20015;-72
2023/09/24 07:52:14;;;;;;;9.70;5.10;;;17.20;99.10;;;;;;6241982;22;20031;-72
2023/09/24 07:55:01;;;;;;;6.88;5.22;;;17.30;98.90;;;;;;6239068;22;20008;-73
2023/09/24 07:57:46;;;;;;;5.70;4.10;;;17.40;98.90;;;;;;6205076;23;20015;-73
2023/09/24 08:00:32;;;;;;;7.57;4.55;;;17.40;98.90;;;;;;6242705;23;20013;-72
2023/09/24 08:03:19;;;;;;;9.10;5.68;;;17.50;98.70;;;;;;6219238;23;20438;-72
2023/09/24 08:06:06;;;;;;;12.50;5.28;;;17.50;98.40;;;;;;6242024;22;20444;-73
2023/09/24 08:08:53;;;;;;;6.30;4.75;;;17.40;98.40;;;;;;6238371;23;20015;-71
2023/09/24 08:11:39;;;;;;;6.32;4.25;;;17.40;98.40;;;;;;6241381;23;20407;-72
2023/09/24 08:14:24;;;;;;;9.02;4.05;;;17.50;98.40;;;;;;6240336;22;20009;-74
2023/09/24 08:17:10;;;;;;;8.98;4.30;;;17.50;98.40;;;;;;6241086;23;20086;-73
2023/09/24 08:19:56;;;;;;;5.57;4.28;;;17.60;98.30;;;;;;6241552;22;20046;-73
2023/09/24 08:22:42;;;;;;;6.95;4.22;;;17.70;98.30;;;;;;6241052;22;20044;-73
2023/09/24 08:25:29;;;;;;;7.65;4.45;;;17.70;98.20;;;;;;6241740;22;20027;-73
2023/09/24 08:28:15;;;;;;;4.50;3.65;;;17.80;98.10;;;;;;6246977;23;20010;-75
2023/09/24 08:31:08;;;;;;;6.00;4.25;;;17.90;98.00;;;;;;6226891;23;20031;-74
2023/09/24 08:33:54;;;;;;;4.95;4.13;;;18.00;98.10;;;;;;6240281;23;20480;-72
2023/09/24 08:36:40;;;;;;;4.95;4.13;;;18.00;97.80;;;;;;6241216;22;20040;-74
2023/09/24 08:39:26;;;;;;;6.22;4.35;;;18.10;97.80;;;;;;6241794;23;20008;-72
2023/09/24 08:42:14;;;;;;;6.03;3.80;;;18.10;97.60;;;;;;6241019;23;20023;-73
2023/09/24 08:45:15;;;;;;;4.10;3.63;;;18.00;97.40;;;;;;6218709;23;20108;-73
2023/09/24 08:48:07;;;;;;;6.22;3.50;;;18.10;97.50;;;;;;6240353;23;20818;-74
2023/09/24 08:50:54;;;;;;;4.38;3.40;;;18.10;97.50;;;;;;6239175;23;20091;-76
2023/09/24 08:53:40;;;;;;;5.25;3.78;;;18.10;97.20;;;;;;6240498;23;20473;-76
2023/09/24 08:56:26;;;;;;;5.93;3.00;;;18.10;97.10;;;;;;6241476;22;20338;-72
2023/09/24 08:59:12;;;;;;;5.75;2.97;;;18.10;96.80;;;;;;6241866;23;20020;-73
2023/09/24 09:01:58;;;;;;;5.72;3.45;;;18.00;96.60;;;;;;6241504;23;20014;-81
2023/09/24 09:04:51;;;;;;;4.53;2.90;;;18.00;96.80;;;;;;6243284;22;20054;-79
2023/09/24 09:07:37;;;;;;;4.68;2.70;;;18.00;96.80;;;;;;6243414;23;20008;-81
2023/09/24 09:10:25;;;;;;;4.43;3.05;;;17.90;96.80;;;;;;6243287;23;20032;-77
2023/09/24 09:13:19;;;;;;;4.15;2.47;;;17.90;96.80;;;;;;6241268;23;20009;-79
2023/09/24 09:16:08;;;;;;;4.45;3.00;;;17.90;96.80;;;;;;6242926;23;20430;-74
2023/09/24 09:19:03;;;;;;;4.22;2.63;;;17.70;96.70;;;;;;6242544;23;20049;-76
2023/09/24 09:21:49;;;;;;;4.30;2.90;;;17.80;96.90;;;;;;6241793;23;20016;-76
2023/09/24 09:24:35;;;;;;;3.95;2.58;;;17.70;96.90;;;;;;6245115;22;20810;-73
2023/09/24 09:27:21;;;;;;;6.90;2.40;;;17.70;96.70;;;;;;6221935;23;20489;-78
2023/09/24 09:30:17;;;;;;;4.53;2.35;;;17.70;96.80;;;;;;6244601;23;20004;-78
2023/09/24 09:33:08;;;;;;;3.47;2.28;;;17.70;96.80;;;;;;6242241;23;20012;-75
2023/09/24 09:35:55;;;;;;;4.03;2.95;;;17.80;96.80;;;;;;6240772;23;20077;-75
2023/09/24 09:38:41;;;;;;;3.35;2.65;;;17.80;96.70;;;;;;6240677;23;20018;-75
2023/09/24 09:41:29;;;;;;;4.47;2.75;;;17.80;96.70;;;;;;6221584;23;20446;-74
2023/09/24 09:44:19;;;;;;;4.60;2.28;;;17.90;96.70;;;;;;6241280;23;20015;-76
2023/09/24 09:47:08;;;;;;;6.15;2.70;;;17.90;96.60;;;;;;6242041;23;20411;-74
2023/09/24 09:50:00;;;;;;;5.70;2.83;;;17.90;96.60;;;;;;6241718;23;20036;-77
2023/09/24 09:52:52;;;;;;;5.68;2.95;;;17.90;96.60;;;;;;6241385;23;20008;-75
2023/09/24 09:55:42;;;;;;;3.55;2.47;;;18.00;96.60;;;;;;6240836;22;20090;-72
2023/09/24 09:58:30;;;;;;;5.22;2.08;;;18.00;96.50;;;;;;6243249;23;20013;-77
2023/09/24 10:01:20;;;;;;;4.47;1.83;;;18.00;96.20;;;;;;6245165;23;20035;-76
2023/09/24 10:04:08;;;;;;;3.75;2.13;;;18.00;96.30;;;;;;6260557;22;20016;-76
2023/09/24 10:06:54;;;;;;;5.68;2.22;;;18.00;96.50;;;;;;6255863;23;20020;-76
2023/09/24 10:09:40;;;;;;;4.05;1.95;;;18.00;96.20;;;;;;6251427;22;20016;-75
2023/09/24 10:12:37;;;;;;;4.70;2.20;;;18.10;96.50;;;;;;6257372;23;20470;-77
2023/09/24 10:15:27;;;;;;;4.75;2.03;;;18.10;96.40;;;;;;6261533;23;20012;-76
2023/09/24 10:18:13;;;;;;;5.18;2.25;;;18.20;96.50;;;;;;6258389;23;20015;-76
2023/09/24 10:20:59;;;;;;;2.83;1.75;;;18.30;96.50;;;;;;6257333;22;20239;-76
2023/09/24 10:23:45;;;;;;;2.40;1.65;;;18.30;96.30;;;;;;6267105;23;20023;-76
2023/09/24 10:26:48;;;;;;;3.58;1.95;;;18.40;95.90;;;;;;6265767;23;20068;-77
2023/09/24 10:29:44;;;;;;;2.75;1.60;;;18.50;95.80;;;;;;6266477;23;20008;-76
2023/09/24 10:32:43;;;;;;;2.00;1.25;;;18.50;95.40;;;;;;6251637;23;20046;-77
2023/09/24 10:35:29;;;;;;;5.38;2.03;;;18.50;95.40;;;;;;6248036;23;20008;-75
2023/09/24 10:38:15;;;;;;;5.93;2.55;;;18.60;95.30;;;;;;6245242;23;20019;-75
2023/09/24 10:41:06;;;;;;;3.85;1.85;;;18.70;95.40;;;;;;6242059;23;20005;-76
2023/09/24 10:44:22;;;;;;;3.72;1.70;;;18.70;95.10;;;;;;6242547;23;20374;-77
2023/09/24 10:47:25;;;;;;;8.57;2.15;;;18.80;95.30;;;;;;6243703;23;20020;-77
2023/09/24 10:50:13;;;;;;;5.07;1.90;;;18.90;95.40;;;;;;6243685;23;20008;-74
2023/09/24 10:53:02;;;;;;;2.30;1.52;;;19.00;95.30;;;;;;6242385;23;20040;-75
2023/09/24 10:55:48;;;;;;;5.10;2.05;;;19.20;95.20;;;;;;6241407;22;20008;-75
2023/09/24 10:58:34;;;;;;;4.50;2.00;;;19.30;94.90;;;;;;6241009;23;20008;-74
2023/09/24 11:01:29;;;;;;;2.70;1.65;;;19.40;94.80;;;;;;6243250;23;20016;-76
2023/09/24 11:04:25;;;;;;;3.08;1.88;;;19.50;94.10;;;;;;6242606;23;20020;-75
2023/09/24 11:07:12;;;;;;;2.78;1.80;;;19.50;93.90;;;;;;6243631;23;20090;-77
2023/09/24 11:09:58;;;;;;;3.90;1.70;;;19.40;93.80;;;;;;6218747;23;20013;-75
2023/09/24 11:12:54;;;;;;;4.13;2.03;;;19.50;93.50;;;;;;6242172;23;20381;-77
2023/09/24 11:15:41;;;;;;;3.30;1.40;;;19.40;93.20;;;;;;6241183;23;20012;-81
2023/09/24 11:18:28;;;;;;;2.47;1.40;;;19.40;92.80;;;;;;6241839;23;20008;-77
2023/09/24 11:21:16;;;;;;;2.97;1.45;;;19.30;92.80;;;;;;6237570;23;20239;-75
2023/09/24 11:24:18;;;;;;;4.55;1.70;;;19.30;92.90;;;;;;6241406;23;20019;-77
2023/09/24 11:27:06;;;;;;;1.48;1.30;;;19.20;92.90;;;;;;6238182;23;20032;-77
2023/09/24 11:29:59;;;;;;;2.95;1.50;;;19.20;92.70;;;;;;6241187;23;20012;-77
2023/09/24 11:32:46;;;;;;;3.88;1.60;;;19.10;92.80;;;;;;6240833;23;20015;-77
2023/09/24 11:35:37;;;;;;;2.17;1.42;;;19.10;92.50;;;;;;6241398;23;20031;-77
2023/09/24 11:38:31;;;;;;;3.80;1.67;;;19.20;92.50;;;;;;6240873;23;20419;-77
2023/09/24 11:41:18;;;;;;;2.92;1.77;;;19.20;92.10;;;;;;6240263;23;20395;-76
2023/09/24 11:44:04;;;;;;;2.38;1.60;;;19.40;92.20;;;;;;6217732;23;20051;-77
2023/09/24 11:46:50;;;;;;;2.22;1.50;;;19.40;91.80;;;;;;6239683;23;20054;-75
2023/09/24 11:49:36;;;;;;;2.35;1.73;;;19.50;92.10;;;;;;6238709;23;20460;-76
2023/09/24 11:52:22;;;;;;;1.83;1.60;;;19.60;92.00;;;;;;6242601;23;20074;-75
2023/09/24 11:55:08;;;;;;;3.55;1.48;;;19.80;91.90;;;;;;6240173;22;20004;-76
2023/09/24 11:57:55;;;;;;;11.00;1.98;;;19.90;92.00;;;;;;6242869;23;20058;-75
2023/09/24 12:00:45;;;;;;;3.83;2.05;;;20.00;91.60;;;;;;6240820;23;20048;-77
2023/09/24 12:03:31;;;;;;;2.92;1.52;;;20.10;91.50;;;;;;6240992;23;20008;-76
2023/09/24 12:06:17;;;;;;;2.50;1.80;;;20.10;90.80;;;;;;6241639;23;20070;-76
2023/09/24 12:09:05;;;;;;;4.40;2.10;;;20.10;90.60;;;;;;6240282;23;20212;-77
2023/09/24 12:11:50;;;;;;;4.43;2.20;;;20.10;90.90;;;;;;6239825;23;20078;-64
2023/09/24 12:14:36;;;;;;;3.58;1.60;;;20.20;91.20;;;;;;6240613;23;20012;-64
2023/09/24 12:17:22;;;;;;;6.35;1.80;;;20.30;91.00;;;;;;6242378;22;20106;-64
2023/09/24 12:20:11;;;;;;;2.33;1.75;;;20.30;90.70;;;;;;6241967;22;20004;-63
2023/09/24 12:22:59;;;;;;;3.83;1.98;;;20.40;90.50;;;;;;6239364;23;20050;-63
2023/09/24 12:25:44;;;;;;;2.47;1.40;;;20.30;90.10;;;;;;6240507;23;20082;-63
2023/09/24 12:28:32;;;;;;;3.20;1.58;;;20.30;90.00;;;;;;6240010;23;20008;-63
2023/09/24 12:31:18;;;;;;;2.50;1.75;;;20.30;89.70;;;;;;6239742;23;20012;-62
2023/09/24 12:34:04;;;;;;;3.55;1.40;;;20.40;89.10;;;;;;6238393;23;20438;-62
2023/09/24 12:36:50;;;;;;;5.05;1.75;;;20.40;88.80;;;;;;6240877;23;20035;-63
2023/09/24 12:39:36;;;;;;;4.63;2.05;;;20.40;88.50;;;;;;6241681;23;20070;-63
2023/09/24 12:42:22;;;;;;;2.60;1.30;;;20.40;88.30;;;;;;6240379;23;20026;-63
2023/09/24 12:45:09;;;;;;;3.13;1.30;;;20.30;88.40;;;;;;6241309;23;20461;-63
2023/09/24 12:47:55;;;;;;;2.10;1.25;;;20.30;87.90;;;;;;6240293;23;20461;-63
2023/09/24 12:50:41;;;;;;;2.60;1.23;;;20.20;88.00;;;;;;6241677;23;20011;-62
2023/09/24 12:53:27;;;;;;;3.65;1.30;;;20.20;88.00;;;;;;6240514;23;20065;-62
2023/09/24 12:56:13;;;;;;;3.28;1.83;;;20.20;87.90;;;;;;6239093;22;20004;-62
2023/09/24 12:59:02;;;;;;;2.42;1.40;;;20.20;87.80;;;;;;6240977;22;20035;-62
2023/09/24 13:01:48;;;;;;;2.25;1.45;;;20.20;87.80;;;;;;6239331;23;20020;-62
2023/09/24 13:04:34;;;;;;;2.55;1.60;;;20.20;88.80;;;;;;6238600;23;20089;-61
2023/09/24 13:07:20;;;;;;;1.95;1.23;;;20.20;89.30;;;;;;6239836;23;20016;-62
2023/09/24 13:10:07;;;;;;;3.13;1.50;;;20.20;89.00;;;;;;6239802;23;20086;-62
2023/09/24 13:12:53;;;;;;;2.40;1.45;;;20.30;88.40;;;;;;6239176;23;20020;-62
2023/09/24 13:15:39;;;;;;;1.65;1.30;;;20.30;87.90;;;;;;6238707;23;20012;-63
2023/09/24 13:18:25;;;;;;;4.07;1.75;;;20.40;87.00;;;;;;6238933;23;20063;-63
2023/09/24 13:21:11;;;;;;;12.25;1.88;;;20.50;87.10;;;;;;6240454;23;20008;-61
2023/09/24 13:23:57;;;;;;;3.88;1.35;;;20.50;86.40;;;;;;6239159;23;20362;-63
2023/09/24 13:26:43;;;;;;;3.17;1.45;;;20.60;86.50;;;;;;6236990;23;20024;-63
2023/09/24 13:29:29;;;;;;;7.88;2.78;;;20.60;85.90;;;;;;6239002;23;20008;-63
2023/09/24 13:32:18;;;;;;;2.08;1.35;;;20.50;85.90;;;;;;6241137;23;20098;-63
2023/09/24 13:35:06;;;;;;;1.50;1.10;;;20.60;86.40;;;;;;6239471;23;20008;-63
2023/09/24 13:37:52;;;;;;;1.80;1.33;;;20.60;86.50;;;;;;6240113;23;20335;-63
2023/09/24 13:40:38;;;;;;;1.52;1.20;;;20.70;85.80;;;;;;6240683;23;20082;-64
2023/09/24 13:43:24;;;;;;;1.80;1.20;;;20.80;85.40;;;;;;6238136;23;20004;-63
2023/09/24 13:46:10;;;;;;;1.77;1.52;;;21.00;85.30;;;;;;6241324;23;20489;-63
2023/09/24 13:48:58;;;;;;;1.50;1.38;;;21.10;84.80;;;;;;6243027;23;20143;-62
2023/09/24 13:51:44;;;;;;;2.85;1.73;;;21.10;84.30;;;;;;6219559;23;20008;-63
2023/09/24 13:54:31;;;;;;;1.40;1.02;;;21.20;84.10;;;;;;6240818;23;20011;-63
2023/09/24 13:57:17;;;;;;;4.38;1.70;;;21.30;83.80;;;;;;6240105;22;20019;-63
2023/09/24 14:00:04;;;;;;;1.90;1.30;;;21.40;83.00;;;;;;6243012;23;20008;-63
2023/09/24 14:02:50;;;;;;;2.10;1.40;;;21.40;83.10;;;;;;6240738;23;20019;-63
2023/09/24 14:05:35;;;;;;;2.70;1.60;;;21.50;82.80;;;;;;6241222;23;20023;-63
2023/09/24 14:14:31;;;;;;;1.67;1.10;;;21.70;82.30;;;;;;6240374;23;20227;-62
2023/09/24 14:17:17;;;;;;;3.28;1.20;;;21.80;82.50;;;;;;6239552;23;20016;-62
2023/09/24 14:20:05;;;;;;;1.70;1.38;;;21.80;82.00;;;;;;6242685;23;20322;-61
2023/09/24 14:22:51;;;;;;;3.28;1.80;;;21.80;82.10;;;;;;6241880;23;20060;-62
2023/09/24 14:25:41;;;;;;;1.75;1.20;;;21.80;81.30;;;;;;6239696;23;20039;-63
2023/09/24 14:28:27;;;;;;;2.53;1.27;;;21.80;81.70;;;;;;6242344;23;20004;-62
2023/09/24 14:31:16;;;;;;;1.75;1.05;;;21.80;81.20;;;;;;6242330;23;20403;-62
2023/09/24 14:34:02;;;;;;;7.85;1.85;;;21.80;80.70;;;;;;6238568;23;20004;-63
2023/09/24 14:36:48;;;;;;;1.42;0.90;;;21.80;80.40;;;;;;6238273;23;20018;-63